Time;durP1;ratioP1;P1;durP2;ratioP2;P2;SDS_P1;SDS_P2;PMS_P1;PMS_P2;Temp;Humidity;BMP_temperature;BMP_pressure;BME280_temperature;BME280_humidity;BME280_pressure;Samples;Min_cycle;Max_cycle;Signal;HPM_P1;HPM_P2
2023/04/24 00:02:20;;;;;;;1.50;0.87;;;;;;;;;;5068520;28;20103;-72
2023/04/24 00:04:46;;;;;;;1.58;0.70;;;9.50;99.90;;;;;;5067906;28;20745;-72
2023/04/24 00:07:12;;;;;;;0.73;0.70;;;9.00;99.90;;;;;;5068268;28;20061;-73
2023/04/24 00:09:38;;;;;;;1.08;0.93;;;;;;;;;;5071981;28;20060;-72
2023/04/24 00:12:05;;;;;;;1.77;0.75;;;;;;;;;;5072445;28;20035;-72
2023/04/24 00:14:31;;;;;;;2.30;1.10;;;9.10;99.90;;;;;;5069004;28;20100;-72
2023/04/24 00:16:56;;;;;;;0.98;0.88;;;9.00;99.90;;;;;;5072298;28;20086;-72
2023/04/24 00:19:22;;;;;;;0.80;0.80;;;;;;;;;;5071614;28;20024;-72
2023/04/24 00:21:51;;;;;;;3.30;0.98;;;9.30;99.90;;;;;;5072227;28;20028;-72
2023/04/24 00:24:18;;;;;;;1.45;0.93;;;9.00;99.90;;;;;;5071709;28;20070;-72
2023/04/24 00:26:44;;;;;;;3.97;0.80;;;;;;;;;;5072405;28;20044;-72
2023/04/24 00:29:10;;;;;;;2.05;1.35;;;;;;;;;;5071176;28;20104;-72
2023/04/24 00:31:36;;;;;;;0.77;0.77;;;;;;;;;;5071573;28;20115;-73
2023/04/24 00:34:02;;;;;;;4.90;1.67;;;;;;;;;;5071278;28;20024;-72
2023/04/24 00:36:28;;;;;;;1.80;1.52;;;9.50;99.90;;;;;;5069697;28;20103;-72
2023/04/24 00:38:54;;;;;;;3.63;0.90;;;9.30;99.90;;;;;;5071027;28;20545;-72
2023/04/24 00:41:21;;;;;;;0.98;0.93;;;9.60;99.90;;;;;;5070144;28;20115;-72
2023/04/24 00:43:46;;;;;;;1.88;1.13;;;9.40;99.90;;;;;;5063869;28;20044;-72
2023/04/24 00:46:13;;;;;;;3.78;1.10;;;9.50;99.90;;;;;;5071354;28;20056;-72
2023/04/24 00:48:42;;;;;;;3.00;1.03;;;9.40;99.90;;;;;;5071183;28;20052;-72
2023/04/24 00:51:08;;;;;;;1.48;1.02;;;;;;;;;;5071352;28;20298;-72
2023/04/24 00:53:34;;;;;;;0.90;0.60;;;;;;;;;;5070925;28;20166;-72
2023/04/24 00:56:01;;;;;;;0.82;0.82;;;9.80;99.90;;;;;;5071389;28;20104;-71
2023/04/24 00:58:27;;;;;;;1.65;0.70;;;;;;;;;;5070861;28;20500;-72
2023/04/24 01:00:55;;;;;;;0.63;0.63;;;9.50;99.90;;;;;;5071152;28;20341;-71
2023/04/24 01:03:24;;;;;;;1.50;1.10;;;9.20;99.90;;;;;;5070630;28;20023;-72
2023/04/24 01:05:50;;;;;;;2.03;1.00;;;9.80;99.90;;;;;;5071205;28;20032;-71
2023/04/24 01:08:16;;;;;;;1.23;0.88;;;9.60;99.90;;;;;;5071123;28;20039;-72
2023/04/24 01:10:44;;;;;;;1.48;0.93;;;9.70;99.90;;;;;;5070546;28;20032;-72
2023/04/24 01:13:10;;;;;;;;;;;9.60;99.90;;;;;;5071195;28;20554;-72
2023/04/24 01:15:35;;;;;;;4.47;1.35;;;9.60;99.90;;;;;;5070647;28;19996;-72
2023/04/24 01:18:01;;;;;;;0.90;0.73;;;9.40;99.90;;;;;;5071060;28;20103;-73
2023/04/24 01:20:28;;;;;;;3.92;1.10;;;9.70;99.90;;;;;;5070070;28;20410;-72
2023/04/24 01:22:57;;;;;;;1.40;1.17;;;9.40;99.90;;;;;;5071313;28;20426;-72
2023/04/24 01:25:25;;;;;;;1.55;0.70;;;9.30;99.90;;;;;;5070901;28;20031;-72
2023/04/24 01:27:51;;;;;;;1.02;0.85;;;9.50;99.90;;;;;;5070840;28;20044;-72
2023/04/24 01:30:17;;;;;;;1.10;0.85;;;9.30;99.90;;;;;;5070190;28;20098;-73
2023/04/24 01:32:46;;;;;;;1.85;0.70;;;;;;;;;;5070884;28;20115;-72
2023/04/24 01:35:12;;;;;;;3.60;1.25;;;9.20;99.90;;;;;;5070394;28;20436;-72
2023/04/24 01:37:37;;;;;;;2.05;1.65;;;9.10;99.90;;;;;;5070881;28;20032;-72
2023/04/24 01:40:07;;;;;;;1.98;0.93;;;8.90;99.90;;;;;;5065141;28;20104;-72
2023/04/24 01:42:33;;;;;;;0.60;0.60;;;;;;;;;;5070172;28;20036;-72
2023/04/24 01:45:00;;;;;;;0.70;0.70;;;8.50;99.90;;;;;;5070270;28;20025;-72
2023/04/24 01:47:26;;;;;;;3.20;0.88;;;8.60;99.90;;;;;;5070170;28;20068;-72
2023/04/24 01:49:52;;;;;;;1.58;0.82;;;;;;;;;;5085347;28;20064;-72
2023/04/24 01:52:18;;;;;;;3.50;0.70;;;8.60;99.90;;;;;;5070427;28;20025;-72
2023/04/24 01:54:44;;;;;;;1.00;0.90;;;8.50;99.90;;;;;;5070036;28;20493;-72
2023/04/24 01:57:11;;;;;;;1.35;0.75;;;;;;;;;;5070232;28;20112;-72
2023/04/24 01:59:36;;;;;;;7.53;1.33;;;8.70;99.90;;;;;;5069605;28;20017;-72
2023/04/24 02:02:03;;;;;;;3.22;0.90;;;9.00;99.90;;;;;;5070561;28;20051;-71
2023/04/24 02:04:28;;;;;;;0.82;0.75;;;9.40;99.90;;;;;;5069390;28;20025;-72
2023/04/24 02:06:54;;;;;;;4.57;0.82;;;;;;;;;;5066971;28;20521;-72
2023/04/24 02:09:20;;;;;;;1.50;1.40;;;;;;;;;;5069450;28;20547;-72
2023/04/24 02:11:46;;;;;;;1.42;0.90;;;9.70;99.90;;;;;;5069936;28;20064;-71
2023/04/24 02:14:12;;;;;;;3.03;0.88;;;9.60;99.90;;;;;;5069545;28;20052;-72
2023/04/24 02:16:38;;;;;;;1.00;0.90;;;;;;;;;;5070263;28;20443;-72
2023/04/24 02:19:04;;;;;;;4.38;1.20;;;;;;;;;;5069711;28;20055;-73
2023/04/24 02:21:30;;;;;;;3.60;0.95;;;;;;;;;;5070206;28;20028;-72
2023/04/24 02:23:56;;;;;;;2.28;1.23;;;9.90;99.90;;;;;;5065241;28;20024;-72
2023/04/24 02:26:22;;;;;;;3.45;0.80;;;9.90;99.90;;;;;;5062598;28;20025;-72
2023/04/24 02:28:48;;;;;;;3.22;1.00;;;;;;;;;;5069432;28;20032;-72
2023/04/24 02:31:14;;;;;;;5.00;2.15;;;9.80;99.90;;;;;;5069047;28;20063;-72
2023/04/24 02:33:40;;;;;;;2.00;0.95;;;9.90;99.90;;;;;;5069026;28;20025;-71
2023/04/24 02:36:05;;;;;;;7.28;1.33;;;9.90;99.90;;;;;;5069685;28;20478;-72
2023/04/24 02:38:31;;;;;;;1.65;0.80;;;;;;;;;;5069356;28;20451;-72
2023/04/24 02:40:57;;;;;;;1.30;1.20;;;;;;;;;;5068923;28;20035;-72
2023/04/24 02:43:23;;;;;;;0.82;0.82;;;;;;;;;;5069134;28;20020;-72
2023/04/24 02:45:50;;;;;;;1.35;0.68;;;;;;;;;;5068782;28;20395;-72
2023/04/24 02:48:16;;;;;;;5.60;1.13;;;10.40;99.90;;;;;;5068752;28;20511;-72
2023/04/24 02:50:43;;;;;;;2.17;1.10;;;10.10;99.90;;;;;;5069094;28;20032;-72
2023/04/24 02:53:08;;;;;;;2.28;1.25;;;10.10;99.90;;;;;;5069187;28;20111;-72
2023/04/24 02:55:34;;;;;;;8.40;0.93;;;;;;;;;;5084360;28;20123;-72
2023/04/24 02:58:00;;;;;;;0.80;0.80;;;10.20;99.90;;;;;;5069122;28;20074;-72
2023/04/24 03:00:25;;;;;;;1.35;0.80;;;10.20;99.90;;;;;;5068703;28;20562;-72
2023/04/24 03:02:51;;;;;;;6.05;1.10;;;;;;;;;;5068763;28;20111;-72
2023/04/24 03:05:17;;;;;;;1.75;1.38;;;;;;;;;;5066916;28;20031;-72
2023/04/24 03:07:43;;;;;;;3.30;0.98;;;;;;;;;;5068646;28;20041;-72
2023/04/24 03:10:09;;;;;;;1.95;1.35;;;;;;;;;;5068731;28;20044;-72
2023/04/24 03:12:35;;;;;;;3.75;1.15;;;;;;;;;;5069118;28;20043;-72
2023/04/24 03:15:01;;;;;;;1.00;0.90;;;;;;;;;;5069290;28;20476;-72
2023/04/24 03:17:27;;;;;;;5.00;1.20;;;10.40;99.90;;;;;;5084165;28;20115;-72
2023/04/24 03:19:53;;;;;;;5.80;1.05;;;;;;;;;;5068598;28;20111;-71
2023/04/24 03:22:19;;;;;;;9.88;1.35;;;10.30;99.90;;;;;;5068868;28;20024;-72
2023/04/24 03:24:45;;;;;;;0.55;0.55;;;;;;;;;;5068569;28;20918;-72
2023/04/24 03:27:10;;;;;;;1.27;0.93;;;10.00;99.90;;;;;;5068548;28;20060;-72
2023/04/24 03:29:36;;;;;;;0.75;0.70;;;10.20;99.90;;;;;;5068275;28;20398;-72
2023/04/24 03:32:02;;;;;;;0.50;0.50;;;;;;;;;;5068540;28;20024;-72
2023/04/24 03:34:28;;;;;;;0.90;0.60;;;10.10;99.90;;;;;;5067873;28;20027;-72
2023/04/24 03:36:54;;;;;;;8.65;0.70;;;;;;;;;;5068359;28;20028;-72
2023/04/24 03:39:20;;;;;;;1.50;0.68;;;;;;;;;;5067933;28;20630;-72
2023/04/24 03:41:45;;;;;;;0.93;0.70;;;10.10;99.90;;;;;;5067858;28;20036;-72
2023/04/24 03:44:11;;;;;;;7.00;1.17;;;;;;;;;;5068610;28;20020;-72
2023/04/24 03:46:37;;;;;;;0.70;0.70;;;;;;;;;;5067901;28;20084;-72
2023/04/24 03:49:03;;;;;;;3.50;1.05;;;;;;;;;;5081805;28;20105;-73
2023/04/24 03:51:30;;;;;;;3.92;0.82;;;;;;;;;;5065684;28;20016;-72
2023/04/24 03:53:56;;;;;;;2.03;0.90;;;10.20;99.90;;;;;;5068176;28;20047;-73
2023/04/24 03:56:22;;;;;;;5.97;1.02;;;;;;;;;;5067860;28;20099;-71
2023/04/24 03:58:48;;;;;;;2.28;0.98;;;;;;;;;;5068310;28;20428;-72
2023/04/24 04:01:15;;;;;;;4.10;0.90;;;10.40;99.90;;;;;;5067989;28;20032;-72
2023/04/24 04:03:41;;;;;;;;;;;10.30;99.90;;;;;;5068375;28;20074;-72
2023/04/24 04:06:07;;;;;;;2.38;0.82;;;10.10;99.90;;;;;;5068098;28;20331;-74
2023/04/24 04:08:33;;;;;;;1.45;0.95;;;;;;;;;;5065914;28;20523;-72
2023/04/24 04:10:59;;;;;;;1.33;1.10;;;;;;;;;;5067858;28;20546;-72
2023/04/24 04:13:25;;;;;;;0.80;0.60;;;;;;;;;;5068274;28;20111;-71
2023/04/24 04:15:50;;;;;;;3.40;1.02;;;10.50;99.90;;;;;;5067838;28;20089;-72
2023/04/24 04:18:16;;;;;;;0.57;0.57;;;10.30;99.90;;;;;;5068087;28;20037;-72
2023/04/24 04:20:42;;;;;;;0.95;0.70;;;;;;;;;;5067834;28;20044;-72
2023/04/24 04:23:08;;;;;;;1.92;0.80;;;;;;;;;;5067868;28;20024;-72
2023/04/24 04:25:34;;;;;;;4.57;0.80;;;;;;;;;;5067851;28;20029;-71
2023/04/24 04:27:59;;;;;;;3.05;1.00;;;10.30;99.90;;;;;;5068284;28;20051;-72
2023/04/24 04:30:26;;;;;;;2.03;0.88;;;;;;;;;;5067604;28;20059;-71
2023/04/24 04:32:52;;;;;;;4.45;0.98;;;;;;;;;;5068343;28;20031;-72
2023/04/24 04:35:17;;;;;;;2.78;0.68;;;9.80;99.90;;;;;;5067191;28;20028;-72
2023/04/24 04:37:44;;;;;;;3.80;0.82;;;;;;;;;;5067908;28;20033;-72
2023/04/24 04:40:11;;;;;;;0.90;0.85;;;10.00;99.90;;;;;;5067827;28;20048;-71
2023/04/24 04:42:40;;;;;;;1.60;1.08;;;;;;;;;;5067893;28;20117;-70
2023/04/24 04:45:08;;;;;;;1.45;0.80;;;9.70;99.90;;;;;;5065231;28;20024;-70
2023/04/24 04:47:34;;;;;;;0.90;0.80;;;;;;;;;;5067542;28;20055;-70
2023/04/24 04:50:00;;;;;;;2.05;1.13;;;;;;;;;;5065973;28;20044;-71
2023/04/24 04:52:27;;;;;;;4.22;1.35;;;;;;;;;;5067821;28;20043;-70
2023/04/24 04:54:53;;;;;;;0.60;0.60;;;;;;;;;;5070131;28;20017;-69
2023/04/24 04:57:19;;;;;;;1.25;1.10;;;9.60;99.90;;;;;;5070555;28;20060;-70
2023/04/24 04:59:44;;;;;;;0.93;0.90;;;;;;;;;;5070274;28;20125;-69
2023/04/24 05:02:11;;;;;;;0.98;0.82;;;;;;;;;;5069006;28;21024;-70
2023/04/24 05:04:37;;;;;;;1.10;1.00;;;;;;;;;;5064188;28;20028;-70
2023/04/24 05:07:03;;;;;;;4.85;1.70;;;;;;;;;;5064706;28;20048;-70
2023/04/24 05:09:29;;;;;;;1.30;1.20;;;;;;;;;;5057011;28;20021;-69
2023/04/24 05:11:58;;;;;;;1.40;1.15;;;8.90;99.90;;;;;;5067014;28;20424;-70
2023/04/24 05:14:23;;;;;;;1.20;1.00;;;8.70;99.90;;;;;;5071117;28;20016;-70
2023/04/24 05:16:49;;;;;;;3.47;1.27;;;;;;;;;;5070945;28;20078;-70
2023/04/24 05:19:15;;;;;;;0.80;0.80;;;;;;;;;;5062099;28;20071;-70
2023/04/24 05:21:41;;;;;;;1.27;0.60;;;;;;;;;;5055122;28;20028;-70
2023/04/24 05:24:07;;;;;;;0.95;0.85;;;9.60;99.90;;;;;;5070491;28;20099;-70
2023/04/24 05:26:33;;;;;;;0.60;0.60;;;;;;;;;;5069921;28;20485;-70
2023/04/24 05:29:00;;;;;;;2.92;0.90;;;;;;;;;;5069715;28;20021;-70
2023/04/24 05:31:26;;;;;;;2.45;0.70;;;;;;;;;;5070353;28;20052;-72
2023/04/24 05:33:52;;;;;;;1.38;0.93;;;;;;;;;;5067789;28;20521;-71
2023/04/24 05:36:18;;;;;;;2.33;1.10;;;;;;;;;;5069848;28;20029;-73
2023/04/24 05:38:43;;;;;;;1.88;1.05;;;10.10;99.90;;;;;;5069807;28;20082;-70
2023/04/24 05:41:09;;;;;;;1.70;1.27;;;;;;;;;;5069591;28;20748;-74
2023/04/24 05:43:35;;;;;;;3.97;1.02;;;;;;;;;;5041969;28;20081;-73
2023/04/24 05:46:01;;;;;;;1.98;1.27;;;;;;;;;;5021671;28;20125;-74
2023/04/24 05:48:27;;;;;;;1.10;1.05;;;;;;;;;;5019631;28;20091;-74
2023/04/24 05:50:53;;;;;;;1.50;1.27;;;;;;;;;;5026448;28;20569;-72
2023/04/24 05:53:19;;;;;;;3.10;1.30;;;;;;;;;;5019184;28;20095;-75
2023/04/24 05:55:46;;;;;;;1.80;1.70;;;;;;;;;;5029280;28;20032;-74
2023/04/24 05:58:12;;;;;;;3.42;2.00;;;11.70;99.90;;;;;;5029678;28;20021;-73
2023/04/24 06:00:41;;;;;;;1.60;1.23;;;;;;;;;;5028045;28;20129;-74
2023/04/24 06:03:07;;;;;;;3.95;2.05;;;12.00;99.90;;;;;;5029245;28;20029;-73
2023/04/24 06:05:33;;;;;;;1.67;1.20;;;;;;;;;;5029351;28;20033;-72
2023/04/24 06:07:59;;;;;;;1.63;1.13;;;;;;;;;;5029585;28;20514;-71
2023/04/24 06:10:25;;;;;;;2.45;1.42;;;;;;;;;;5028664;28;20026;-71
2023/04/24 06:12:51;;;;;;;0.85;0.85;;;;;;;;;;5029324;28;20113;-71
2023/04/24 06:15:17;;;;;;;8.65;3.42;;;;;;;;;;5028995;28;20477;-71
2023/04/24 06:17:43;;;;;;;2.22;1.60;;;;;;;;;;5028508;28;20033;-71
2023/04/24 06:20:10;;;;;;;5.50;4.20;;;;;;;;;;5028644;28;20052;-71
2023/04/24 06:22:36;;;;;;;5.85;3.72;;;;;;;;;;5028492;28;20057;-75
2023/04/24 06:25:03;;;;;;;4.35;2.90;;;;;;;;;;5029215;28;20061;-73
2023/04/24 06:27:29;;;;;;;5.70;3.97;;;;;;;;;;5028868;28;20566;-72
2023/04/24 06:29:55;;;;;;;10.48;7.45;;;;;;;;;;5028606;28;20096;-73
2023/04/24 06:32:22;;;;;;;3.00;2.58;;;13.60;99.90;;;;;;5028663;28;20029;-74
2023/04/24 06:34:48;;;;;;;1.98;1.52;;;14.00;99.90;;;;;;5028430;28;20026;-75
2023/04/24 06:37:16;;;;;;;2.85;1.70;;;;;;;;;;5029148;28;20025;-72
2023/04/24 06:39:42;;;;;;;4.82;1.77;;;14.30;99.90;;;;;;5028801;28;20021;-73
2023/04/24 06:42:09;;;;;;;2.20;1.60;;;;;;;;;;5023970;28;20065;-73
2023/04/24 06:44:40;;;;;;;3.42;1.65;;;14.60;94.50;;;;;;5023139;28;20540;-69
2023/04/24 06:47:15;;;;;;;0.95;0.95;;;14.80;99.90;;;;;;5028332;28;20056;-74
2023/04/24 06:49:41;;;;;;;1.65;1.20;;;14.90;94.80;;;;;;5027973;28;20022;-76
2023/04/24 06:52:06;;;;;;;3.63;1.25;;;14.90;99.00;;;;;;5028639;28;20025;-75
2023/04/24 06:54:32;;;;;;;3.50;1.17;;;14.20;95.90;;;;;;5028426;28;20320;-73
2023/04/24 06:57:00;;;;;;;2.15;1.40;;;14.20;96.20;;;;;;5024256;28;20033;-71
2023/04/24 06:59:27;;;;;;;3.63;1.40;;;14.00;94.40;;;;;;5018843;28;20018;-70
2023/04/24 07:01:53;;;;;;;2.15;1.48;;;;;;;;;;5028363;28;20549;-70
2023/04/24 07:04:19;;;;;;;1.80;1.60;;;14.30;98.40;;;;;;5026616;28;20017;-70
2023/04/24 07:06:48;;;;;;;3.10;1.75;;;15.00;90.30;;;;;;5018612;28;20170;-70
2023/04/24 07:09:16;;;;;;;2.70;1.17;;;;;;;;;;5028363;28;20032;-70
2023/04/24 07:11:41;;;;;;;1.67;1.25;;;14.30;92.80;;;;;;5027773;28;20061;-71
2023/04/24 07:14:08;;;;;;;3.75;1.58;;;14.10;90.10;;;;;;5028268;28;20064;-70
2023/04/24 07:16:34;;;;;;;1.40;1.27;;;;;;;;;;5015370;28;20049;-70
2023/04/24 07:19:00;;;;;;;1.67;1.58;;;;;;;;;;5026674;28;20749;-70
2023/04/24 07:21:27;;;;;;;3.13;1.00;;;21.70;65.30;;;;;;5027731;28;20025;-71
2023/04/24 07:23:53;;;;;;;1.25;1.15;;;;;;;;;;5028250;28;20048;-71
2023/04/24 07:26:20;;;;;;;1.00;1.00;;;21.00;66.60;;;;;;5028134;28;20036;-69
2023/04/24 07:28:46;;;;;;;0.77;0.52;;;;;;;;;;5028125;28;20079;-70
2023/04/24 07:31:12;;;;;;;1.98;0.75;;;;;;;;;;5027627;28;20175;-71
2023/04/24 07:33:38;;;;;;;2.80;1.10;;;18.90;65.80;;;;;;5027063;28;20040;-70
2023/04/24 07:36:04;;;;;;;3.17;1.25;;;18.50;76.90;;;;;;5027851;28;20399;-70
2023/04/24 07:38:30;;;;;;;4.18;2.20;;;21.20;75.30;;;;;;5027600;28;20017;-70
2023/04/24 07:40:57;;;;;;;1.48;1.38;;;;;;;;;;5027248;28;20560;-71
2023/04/24 07:43:23;;;;;;;1.17;0.95;;;;;;;;;;5027685;28;20022;-72
2023/04/24 07:45:50;;;;;;;2.57;1.10;;;32.40;42.20;;;;;;5014992;28;20057;-72
2023/04/24 07:48:17;;;;;;;0.70;0.40;;;;;;;;;;5024009;28;20338;-72
2023/04/24 07:50:43;;;;;;;1.70;0.88;;;;;;;;;;5027775;28;20057;-72
2023/04/24 07:53:09;;;;;;;3.37;0.73;;;;;;;;;;5017254;28;20025;-72
2023/04/24 07:55:35;;;;;;;1.60;0.85;;;;;;;;;;5027421;28;20033;-72
2023/04/24 07:58:01;;;;;;;1.50;1.35;;;;;;;;;;5026502;28;20102;-71
2023/04/24 08:00:27;;;;;;;1.20;0.70;;;36.10;35.00;;;;;;5023700;28;20037;-72
2023/04/24 08:02:53;;;;;;;1.07;0.60;;;;;;;;;;5022623;28;20041;-72
2023/04/24 08:05:19;;;;;;;1.50;0.85;;;31.70;45.70;;;;;;5019506;28;20029;-72
2023/04/24 08:07:48;;;;;;;0.73;0.53;;;28.40;38.80;;;;;;5022285;28;20048;-71
2023/04/24 08:10:14;;;;;;;2.42;0.65;;;25.80;51.10;;;;;;5026714;28;20036;-71
2023/04/24 08:12:40;;;;;;;1.70;1.05;;;23.20;53.50;;;;;;5015733;28;20127;-72
2023/04/24 08:15:06;;;;;;;1.25;0.90;;;23.80;42.70;;;;;;5016969;28;20088;-70
2023/04/24 08:17:36;;;;;;;0.88;0.88;;;25.50;43.50;;;;;;5023238;28;20540;-74
2023/04/24 08:20:04;;;;;;;2.92;1.05;;;29.00;38.80;;;;;;5023716;28;20024;-74
2023/04/24 08:22:30;;;;;;;2.10;0.75;;;31.50;43.20;;;;;;5010689;28;20033;-72
2023/04/24 08:24:57;;;;;;;1.42;0.88;;;;;;;;;;5012631;28;20037;-71
2023/04/24 08:27:23;;;;;;;1.93;0.80;;;26.70;36.60;;;;;;5022585;28;20037;-72
2023/04/24 08:29:49;;;;;;;2.20;0.75;;;24.70;50.10;;;;;;5021519;28;20029;-72
2023/04/24 08:32:15;;;;;;;3.50;1.63;;;;;;;;;;5030985;28;20021;-71
2023/04/24 08:34:41;;;;;;;3.22;0.95;;;;;;;;;;5021546;28;20267;-72
2023/04/24 08:37:07;;;;;;;13.63;7.78;;;;;;;;;;5018995;28;20387;-72
2023/04/24 08:39:33;;;;;;;7.47;4.78;;;;;;;;;;5015936;28;20057;-71
2023/04/24 08:42:05;;;;;;;6.05;3.15;;;25.10;39.30;;;;;;5015851;28;20807;-72
2023/04/24 08:44:32;;;;;;;1.65;1.55;;;33.40;33.80;;;;;;5015025;28;20033;-73
2023/04/24 08:46:58;;;;;;;4.57;1.98;;;;;;;;;;5015044;28;20049;-73
2023/04/24 08:49:25;;;;;;;3.83;1.07;;;36.50;29.50;;;;;;5019601;28;20032;-73
2023/04/24 08:51:52;;;;;;;0.93;0.90;;;37.40;29.90;;;;;;5023632;28;20657;-72
2023/04/24 08:54:18;;;;;;;2.45;1.60;;;40.80;28.00;;;;;;5027106;28;20375;-74
2023/04/24 08:56:47;;;;;;;2.05;0.80;;;44.70;30.00;;;;;;5030932;28;20037;-73
2023/04/24 08:59:13;;;;;;;3.33;1.27;;;47.20;28.80;;;;;;5029761;28;20076;-73
2023/04/24 09:01:40;;;;;;;1.45;0.60;;;42.90;27.40;;;;;;5030110;28;20029;-72
2023/04/24 09:04:09;;;;;;;2.25;1.00;;;42.60;30.40;;;;;;5030395;28;20037;-73
2023/04/24 09:06:35;;;;;;;2.92;0.40;;;;;;;;;;5030693;28;20048;-73
2023/04/24 09:09:03;;;;;;;1.10;0.90;;;39.90;27.00;;;;;;5030174;28;20448;-73
2023/04/24 09:11:30;;;;;;;0.82;0.73;;;43.70;26.00;;;;;;5029940;28;20048;-73
2023/04/24 09:13:56;;;;;;;1.27;0.60;;;40.40;28.60;;;;;;5030208;28;20029;-72
2023/04/24 09:16:24;;;;;;;2.55;1.17;;;;;;;;;;5019380;28;20075;-72
2023/04/24 09:18:50;;;;;;;0.88;0.75;;;35.20;28.50;;;;;;5030079;28;20064;-71
2023/04/24 09:21:16;;;;;;;1.40;0.85;;;36.90;33.30;;;;;;5015449;28;20046;-71
2023/04/24 09:23:41;;;;;;;1.88;0.68;;;35.10;29.90;;;;;;5025261;28;20714;-72
2023/04/24 09:26:09;;;;;;;1.35;0.50;;;32.00;29.20;;;;;;5029887;28;20087;-72
2023/04/24 09:28:37;;;;;;;0.93;0.75;;;29.60;29.10;;;;;;5029960;28;20092;-71
2023/04/24 09:31:13;;;;;;;3.35;1.27;;;28.00;30.00;;;;;;5028754;28;20036;-71
2023/04/24 09:33:40;;;;;;;2.22;1.48;;;;;;;;;;5027816;28;20037;-72
2023/04/24 09:36:06;;;;;;;2.85;0.80;;;35.80;32.90;;;;;;5012147;28;20117;-72
2023/04/24 09:38:36;;;;;;;1.75;0.98;;;37.70;26.80;;;;;;5027279;28;20056;-73
2023/04/24 09:41:04;;;;;;;1.92;1.00;;;38.50;27.20;;;;;;5029123;28;20495;-75
2023/04/24 09:43:30;;;;;;;3.05;1.10;;;;;;;;;;5048369;28;20084;-73
2023/04/24 09:46:03;;;;;;;0.82;0.40;;;38.40;30.00;;;;;;5044790;28;20120;-74
2023/04/24 09:48:38;;;;;;;1.20;0.80;;;39.30;25.80;;;;;;5049575;28;20041;-73
2023/04/24 09:51:11;;;;;;;1.05;0.75;;;44.00;24.60;;;;;;5042282;28;20040;-76
2023/04/24 09:53:37;;;;;;;4.32;0.82;;;40.70;26.20;;;;;;5049328;28;20494;-74
2023/04/24 09:56:10;;;;;;;1.10;0.40;;;36.00;25.10;;;;;;5034964;28;20035;-76
2023/04/24 09:58:37;;;;;;;1.05;0.50;;;39.90;30.10;;;;;;5045672;28;20049;-73
2023/04/24 10:01:03;;;;;;;1.85;0.75;;;;;;;;;;5040593;28;20021;-75
2023/04/24 10:03:33;;;;;;;2.67;0.50;;;44.70;23.30;;;;;;5047662;28;20025;-76
2023/04/24 10:06:08;;;;;;;0.90;0.30;;;43.10;24.00;;;;;;5041628;28;20021;-74
2023/04/24 10:08:35;;;;;;;0.93;0.63;;;39.90;28.30;;;;;;5035038;28;20091;-71
2023/04/24 10:11:01;;;;;;;0.65;0.40;;;35.60;24.70;;;;;;5048808;28;20032;-70
2023/04/24 10:13:27;;;;;;;;;;;32.80;25.40;;;;;;5052247;28;20639;-70
2023/04/24 10:15:53;;;;;;;;;;;29.70;27.20;;;;;;5049047;28;19913;-70
2023/04/24 10:18:20;;;;;;;;;;;27.50;28.10;;;;;;5049330;28;20342;-71
2023/04/24 10:20:46;;;;;;;;;;;29.50;29.10;;;;;;5048887;28;19924;-70
2023/04/24 10:23:12;;;;;;;;;;;32.10;26.80;;;;;;5048462;28;20374;-70
2023/04/24 10:25:37;;;;;;;;;;;32.10;26.90;;;;;;5049250;28;19908;-70
2023/04/24 10:28:03;;;;;;;;;;;31.10;27.00;;;;;;5049396;28;19913;-70
2023/04/24 10:30:30;;;;;;;;;;;29.10;27.00;;;;;;5048812;28;19909;-69
2023/04/24 10:32:56;;;;;;;;;;;28.60;27.60;;;;;;5048229;28;19909;-69
2023/04/24 10:35:24;;;;;;;;;;;31.80;26.50;;;;;;5046812;28;19912;-70
2023/04/24 10:37:52;;;;;;;;;;;32.70;27.00;;;;;;5048783;28;19908;-70
2023/04/24 10:40:19;;;;;;;;;;;37.30;25.30;;;;;;5048749;28;19909;-70
2023/04/24 10:42:48;;;;;;;;;;;34.80;24.00;;;;;;5039026;28;19909;-70
2023/04/24 10:45:18;;;;;;;;;;;31.30;25.90;;;;;;5046272;28;19905;-70
2023/04/24 10:47:56;;;;;;;;;;;31.50;26.40;;;;;;5048515;28;19916;-71
2023/04/24 10:50:21;;;;;;;;;;;34.80;25.40;;;;;;5037313;28;19909;-71
2023/04/24 10:52:48;;;;;;;;;;;;;;;;;;5047490;28;19915;-72
2023/04/24 10:55:15;;;;;;;;;;;31.50;26.20;;;;;;5046718;28;19932;-70
2023/04/24 10:58:00;;;;;;;;;;;28.90;28.30;;;;;;5043707;28;19927;-70
2023/04/24 11:00:27;;;;;;;;;;;27.10;29.70;;;;;;5048121;28;19904;-70
2023/04/24 11:02:53;;;;;;;;;;;;;;;;;;5048920;28;19915;-70
2023/04/24 11:05:19;;;;;;;;;;;24.10;32.40;;;;;;5048203;28;19915;-70
2023/04/24 11:08:03;;;;;;;;;;;23.40;33.40;;;;;;5048277;28;19935;-70
2023/04/24 11:10:29;;;;;;;;;;;27.50;31.50;;;;;;5041932;28;19905;-70
2023/04/24 11:12:54;;;;;;;;;;;28.40;30.20;;;;;;5048596;28;19923;-70
2023/04/24 11:15:20;;;;;;;;;;;34.20;26.60;;;;;;5047217;28;20387;-70
2023/04/24 11:17:45;;;;;;;;;;;35.80;26.80;;;;;;5048338;28;20436;-71
2023/04/24 11:20:16;;;;;;;;;;;36.70;25.40;;;;;;5048314;28;19908;-71
2023/04/24 11:22:41;;;;;;;;;;;34.50;25.30;;;;;;5047917;28;20559;-70
2023/04/24 11:25:08;;;;;;;;;;;32.50;25.50;;;;;;5048008;28;19909;-70
2023/04/24 11:27:40;;;;;;;;;;;29.40;26.90;;;;;;5048215;28;19917;-71
2023/04/24 11:30:06;;;;;;;;;;;30.50;27.00;;;;;;5047961;28;19912;-70
2023/04/24 11:32:36;;;;;;;;;;;31.80;27.00;;;;;;5048193;28;19908;-70
2023/04/24 11:35:24;;;;;;;;;;;36.60;24.90;;;;;;5047908;28;20385;-70
2023/04/24 11:37:51;;;;;;;;;;;36.10;24.00;;;;;;5047820;28;19908;-70
2023/04/24 11:40:19;;;;;;;;;;;35.90;24.30;;;;;;5047685;28;19920;-70
2023/04/24 11:42:45;;;;;;;;;;;37.90;23.80;;;;;;5043883;28;19913;-73
2023/04/24 11:45:15;;;;;;;;;;;35.00;24.10;;;;;;5045985;28;19912;-73
2023/04/24 11:47:41;;;;;;;;;;;31.80;26.30;;;;;;5043524;28;19924;-73
2023/04/24 11:50:10;;;;;;;;;;;29.10;27.40;;;;;;5047436;28;19914;-73
2023/04/24 11:52:43;;;;;;;;;;;26.50;29.50;;;;;;5048238;28;19905;-72
2023/04/24 11:55:15;;;;;;;;;;;24.60;31.10;;;;;;5039663;28;19915;-75
2023/04/24 11:57:48;;;;;;;;;;;23.20;33.40;;;;;;5048355;28;19905;-78
2023/04/24 12:00:21;;;;;;;;;;;22.20;35.10;;;;;;5047718;28;19954;-71
2023/04/24 12:02:47;;;;;;;;;;;;;;;;;;5049030;28;19908;-73
2023/04/24 12:05:22;;;;;;;;;;;21.40;37.60;;;;;;5051216;28;19909;-74
2023/04/24 12:07:48;;;;;;;;;;;21.60;36.60;;;;;;5052075;28;20007;-74
2023/04/24 12:10:14;;;;;;;;;;;23.30;35.00;;;;;;5051881;28;20527;-74
2023/04/24 12:12:40;;;;;;;;;;;25.00;33.80;;;;;;5051681;28;20004;-74
2023/04/24 12:15:08;;;;;;;;;;;26.70;33.00;;;;;;5051024;28;19999;-74
2023/04/24 12:17:34;;;;;;;;;;;26.70;32.10;;;;;;5051728;28;19905;-74
2023/04/24 12:20:04;;;;;;;;;;;26.30;32.00;;;;;;5051187;28;19962;-73
2023/04/24 12:22:48;;;;;;;;;;;25.90;33.20;;;;;;5051625;28;19987;-74
2023/04/24 12:25:17;;;;;;;;;;;25.50;33.80;;;;;;5047164;28;19908;-74
2023/04/24 12:27:44;;;;;;;;;;;24.70;33.60;;;;;;5051769;28;20304;-74
2023/04/24 12:30:11;;;;;;;;;;;24.40;34.50;;;;;;5051024;28;19963;-74
2023/04/24 12:32:40;;;;;;;;;;;24.20;34.70;;;;;;5051658;28;19999;-75
2023/04/24 12:35:06;;;;;;;;;;;23.90;35.10;;;;;;5051016;28;19995;-74
2023/04/24 12:37:33;;;;;;;;;;;23.50;34.80;;;;;;5051056;28;20356;-74
2023/04/24 12:39:59;;;;;;;;;;;23.20;35.60;;;;;;5051358;28;20305;-74
2023/04/24 12:42:29;;;;;;;;;;;23.10;36.50;;;;;;5051354;28;19943;-74
2023/04/24 12:45:02;;;;;;;;;;;23.00;36.00;;;;;;5049739;28;19916;-73
2023/04/24 12:47:28;;;;;;;;;;;22.80;35.50;;;;;;5051155;28;20003;-74
2023/04/24 12:49:55;;;;;;;;;;;22.50;36.20;;;;;;5048823;28;19988;-75
2023/04/24 12:52:21;;;;;;;;;;;22.30;36.60;;;;;;5042343;28;20456;-74
2023/04/24 12:54:47;;;;;;;;;;;22.20;37.20;;;;;;5051388;28;19958;-74
2023/04/24 12:57:12;;;;;;;;;;;22.40;36.30;;;;;;5051200;28;20399;-74
2023/04/24 12:59:39;;;;;;;;;;;22.70;37.20;;;;;;5050428;28;20435;-73
2023/04/24 13:02:04;;;;;;;;;;;22.90;36.00;;;;;;5051022;28;19909;-75
2023/04/24 13:04:30;;;;;;;;;;;23.00;35.90;;;;;;5050469;28;19999;-76
2023/04/24 13:06:55;;;;;;;;;;;22.90;36.70;;;;;;5049348;28;20332;-75
2023/04/24 13:09:21;;;;;;;;;;;22.80;35.00;;;;;;5051153;28;20282;-75
2023/04/24 13:11:47;;;;;;;;;;;22.80;35.40;;;;;;5050301;28;19913;-77
2023/04/24 13:14:12;;;;;;;;;;;22.80;35.30;;;;;;5050116;28;19909;-74
2023/04/24 13:16:37;;;;;;;;;;;22.80;35.60;;;;;;5051451;28;19912;-73
2023/04/24 13:19:03;;;;;;;;;;;22.70;36.90;;;;;;5050086;28;20321;-74
2023/04/24 13:21:30;;;;;;;;;;;22.50;37.00;;;;;;5050430;28;20007;-75
2023/04/24 13:23:55;;;;;;;;;;;22.30;38.30;;;;;;5050694;28;19962;-78
2023/04/24 13:26:21;;;;;;;;;;;22.10;37.00;;;;;;5050161;28;19912;-79
2023/04/24 13:28:47;;;;;;;;;;;21.90;36.90;;;;;;5050357;28;19935;-81
2023/04/24 13:31:13;;;;;;;;;;;21.90;37.00;;;;;;5050156;28;19916;-75
2023/04/24 13:33:39;;;;;;;;;;;22.00;37.10;;;;;;5050328;28;20313;-75
2023/04/24 13:36:05;;;;;;;;;;;22.10;36.30;;;;;;5050214;28;20062;-79
2023/04/24 13:38:30;;;;;;;;;;;22.10;36.20;;;;;;5044251;28;20437;-72
2023/04/24 13:40:56;;;;;;;;;;;21.80;36.80;;;;;;5065369;28;20313;-72
2023/04/24 13:43:22;;;;;;;;;;;21.70;36.40;;;;;;5047282;28;19954;-72
2023/04/24 13:45:47;;;;;;;;;;;21.60;36.70;;;;;;5064314;28;19916;-72
2023/04/24 13:48:15;;;;;;;;;;;21.60;36.90;;;;;;5049388;28;19935;-71
2023/04/24 13:50:41;;;;;;;;;;;21.90;36.50;;;;;;5049569;28;19914;-74